Terminal Aerodrome Forecast
Issued by NWS

Home | Current Version | Previous Version | Text Only | Print | Product List | Glossary On
Versions: 1 2 3 4 5 6 7 8 9 10 11 12 13 14 15 16 17 18 19 20
440
FTUS43 KDTX 240525
TAFDET
TAF
KDET 240525Z 2406/2506 06004KT P6SM SCT100
     FM241400 08007KT P6SM BKN050
     FM241700 09008KT 5SM -SHRA BR BKN028 PROB30 2417/2421 -TSRA
      BKN025CB
     FM250000 07011KT 4SM -SHRA BR BKN015=

USA.gov is the U.S. government's official web portal to all federal, state and local government web resources and services.